Time;durP1;ratioP1;P1;durP2;ratioP2;P2;SDS_P1;SDS_P2;PMS_P1;PMS_P2;Temp;Humidity;BMP_temperature;BMP_pressure;BME280_temperature;BME280_humidity;BME280_pressure;Samples;Min_cycle;Max_cycle;Signal;HPM_P1;HPM_P2
2022/01/04 00:00:09;;;;;;;11.90;6.25;;;11.20;99.90;;;;;;5031836;28;20111;-78
2022/01/04 00:02:35;;;;;;;9.20;6.22;;;11.10;99.90;;;;;;5032594;28;20366;-79
2022/01/04 00:05:01;;;;;;;10.90;7.03;;;11.10;99.90;;;;;;5032212;28;20026;-79
2022/01/04 00:07:28;;;;;;;9.23;5.88;;;11.10;99.90;;;;;;5032168;28;20147;-78
2022/01/04 00:09:54;;;;;;;9.33;6.17;;;11.10;99.90;;;;;;5032300;28;20040;-79
2022/01/04 00:15:14;;;;;;;10.77;5.90;;;11.10;99.90;;;;;;5032278;28;20122;-79
2022/01/04 00:17:40;;;;;;;10.10;6.43;;;11.10;99.90;;;;;;5032025;28;20029;-78
2022/01/04 00:20:08;;;;;;;11.02;6.30;;;11.20;99.90;;;;;;5031202;28;20067;-78
2022/01/04 00:22:34;;;;;;;10.63;6.50;;;11.20;99.90;;;;;;5032117;28;20112;-78
2022/01/04 00:25:00;;;;;;;12.73;6.60;;;11.20;99.90;;;;;;5032521;28;20040;-79
2022/01/04 00:27:26;;;;;;;10.40;6.82;;;11.20;99.90;;;;;;5032069;28;20069;-79
2022/01/04 00:29:52;;;;;;;12.75;7.50;;;11.10;99.90;;;;;;5031786;28;20025;-78
2022/01/04 00:32:18;;;;;;;11.57;6.68;;;11.10;99.90;;;;;;5031996;28;20013;-78
2022/01/04 00:34:44;;;;;;;11.00;7.63;;;11.10;99.90;;;;;;5014169;28;20037;-78
2022/01/04 00:37:10;;;;;;;11.50;7.23;;;11.10;99.90;;;;;;5032171;28;20083;-79
2022/01/04 00:39:36;;;;;;;10.93;6.83;;;11.10;99.90;;;;;;5031961;28;20049;-78
2022/01/04 00:42:03;;;;;;;12.63;7.23;;;11.10;99.90;;;;;;5032468;28;20732;-78
2022/01/04 00:44:29;;;;;;;12.98;6.93;;;11.10;99.90;;;;;;5014160;28;20053;-79
2022/01/04 00:46:55;;;;;;;12.60;6.70;;;11.10;99.90;;;;;;5032080;28;20533;-79
2022/01/04 00:49:22;;;;;;;13.52;7.40;;;11.10;99.90;;;;;;5031981;28;20057;-78
2022/01/04 00:51:52;;;;;;;11.32;6.78;;;11.10;99.90;;;;;;5031605;28;20017;-79
2022/01/04 00:54:19;;;;;;;9.88;6.85;;;11.10;99.90;;;;;;5032167;28;20480;-78
2022/01/04 00:56:47;;;;;;;11.63;7.15;;;11.10;99.90;;;;;;5032178;28;20021;-78
2022/01/04 00:59:14;;;;;;;13.27;7.97;;;11.00;99.90;;;;;;5031531;28;20033;-79
2022/01/04 01:01:40;;;;;;;;;;;11.00;99.90;;;;;;5014235;28;20025;-78
2022/01/04 01:04:07;;;;;;;11.60;7.75;;;10.90;99.90;;;;;;5013440;28;20004;-79
2022/01/04 01:06:33;;;;;;;14.80;8.02;;;10.90;99.90;;;;;;5033723;28;20029;-79
2022/01/04 01:08:59;;;;;;;13.48;7.40;;;10.90;99.90;;;;;;5035550;28;20022;-78
2022/01/04 01:11:26;;;;;;;13.83;7.80;;;10.90;99.90;;;;;;5017515;28;20123;-78
2022/01/04 01:13:52;;;;;;;16.33;7.38;;;11.00;99.90;;;;;;5035090;28;20529;-78
2022/01/04 01:16:18;;;;;;;15.15;7.00;;;10.90;99.90;;;;;;5035477;28;20029;-77
2022/01/04 01:18:45;;;;;;;13.83;7.70;;;10.80;99.90;;;;;;5035123;28;20037;-79
2022/01/04 01:21:11;;;;;;;11.90;7.70;;;10.80;99.90;;;;;;5035330;28;20040;-78
2022/01/04 01:23:37;;;;;;;14.40;7.40;;;10.70;99.90;;;;;;5034889;28;20489;-79
2022/01/04 01:26:05;;;;;;;10.40;6.68;;;10.70;99.90;;;;;;5035015;28;20099;-79
2022/01/04 01:28:33;;;;;;;9.27;5.97;;;10.60;99.90;;;;;;5035093;28;20025;-78
2022/01/04 01:30:59;;;;;;;10.52;6.70;;;10.60;99.90;;;;;;5035079;28;20512;-78
2022/01/04 01:33:27;;;;;;;12.35;7.85;;;10.50;99.90;;;;;;5035213;28;20052;-79
2022/01/04 01:35:55;;;;;;;13.80;7.90;;;10.40;99.90;;;;;;5017171;28;20223;-78
2022/01/04 01:38:21;;;;;;;15.27;8.07;;;10.30;99.90;;;;;;5034303;28;20442;-77
2022/01/04 01:40:49;;;;;;;13.25;8.45;;;10.20;99.90;;;;;;5017006;28;20188;-78
2022/01/04 01:43:16;;;;;;;13.10;8.10;;;10.20;99.90;;;;;;5034477;28;20107;-79
2022/01/04 01:45:42;;;;;;;13.18;7.68;;;10.10;99.90;;;;;;5034576;28;20159;-79
2022/01/04 01:48:08;;;;;;;12.15;8.00;;;10.10;99.90;;;;;;5034868;28;20128;-80
2022/01/04 01:50:35;;;;;;;11.90;6.53;;;10.00;99.90;;;;;;5034952;28;20034;-78
2022/01/04 01:53:01;;;;;;;9.95;5.55;;;10.00;99.90;;;;;;5034415;28;20029;-79
2022/01/04 01:55:28;;;;;;;10.40;5.50;;;10.10;99.90;;;;;;5016463;28;20032;-80
2022/01/04 01:57:54;;;;;;;12.20;6.38;;;10.10;99.90;;;;;;5034433;28;20028;-79
2022/01/04 02:00:24;;;;;;;9.90;6.05;;;10.10;99.90;;;;;;5034547;28;20088;-80
2022/01/04 02:02:51;;;;;;;12.95;6.95;;;10.20;99.90;;;;;;5016543;28;20108;-79
2022/01/04 02:05:17;;;;;;;12.97;6.60;;;10.20;99.90;;;;;;5034395;28;20022;-78
2022/01/04 02:07:44;;;;;;;11.43;5.80;;;10.20;99.90;;;;;;5016663;28;20671;-79
2022/01/04 02:10:11;;;;;;;11.00;6.00;;;10.20;99.90;;;;;;5034537;28;20101;-79
2022/01/04 02:12:40;;;;;;;9.70;5.93;;;10.10;99.90;;;;;;5034292;28;20036;-80
2022/01/04 02:15:10;;;;;;;8.93;5.65;;;10.00;99.90;;;;;;5034083;28;20159;-80
2022/01/04 02:17:36;;;;;;;14.27;5.88;;;10.00;99.90;;;;;;5033267;28;20112;-80
2022/01/04 02:20:04;;;;;;;9.48;5.85;;;10.00;99.90;;;;;;5034162;28;20519;-81
2022/01/04 02:22:31;;;;;;;11.35;5.68;;;10.10;99.90;;;;;;5034395;28;20021;-80
2022/01/04 02:24:58;;;;;;;10.48;5.32;;;10.10;99.90;;;;;;5033998;28;20049;-80
2022/01/04 02:27:24;;;;;;;7.82;5.57;;;10.20;99.90;;;;;;5034295;28;20048;-79
2022/01/04 02:29:50;;;;;;;12.10;5.22;;;10.20;99.90;;;;;;5016058;28;20030;-79
2022/01/04 02:32:18;;;;;;;10.45;5.60;;;10.10;99.90;;;;;;5034053;28;20032;-79
2022/01/04 02:34:49;;;;;;;9.20;5.00;;;10.10;99.90;;;;;;5033689;28;20049;-80
2022/01/04 02:37:26;;;;;;;11.98;5.05;;;10.10;99.90;;;;;;5016144;28;20114;-79
2022/01/04 02:39:54;;;;;;;9.25;4.47;;;10.00;99.90;;;;;;5033421;28;20465;-80
2022/01/04 02:42:21;;;;;;;8.63;4.75;;;10.10;99.90;;;;;;5033596;28;20460;-79
2022/01/04 02:44:47;;;;;;;;;;;10.10;99.90;;;;;;5016220;28;20422;-81
2022/01/04 02:47:14;;;;;;;10.02;4.50;;;10.00;99.90;;;;;;5033556;28;19952;-80
2022/01/04 02:49:40;;;;;;;10.68;4.95;;;10.00;99.90;;;;;;5033956;28;20477;-80
2022/01/04 02:52:07;;;;;;;9.35;4.78;;;10.00;99.90;;;;;;5033925;28;20167;-79
2022/01/04 02:54:34;;;;;;;9.43;4.45;;;10.00;99.90;;;;;;5033669;28;20037;-80
2022/01/04 02:57:00;;;;;;;11.10;4.50;;;10.00;99.90;;;;;;5033519;28;20100;-80
2022/01/04 02:59:26;;;;;;;9.55;4.90;;;9.90;99.90;;;;;;5015840;28;20037;-80
2022/01/04 03:01:53;;;;;;;12.02;6.40;;;9.80;99.90;;;;;;5033661;28;20171;-79
2022/01/04 03:04:20;;;;;;;12.65;6.40;;;9.90;99.90;;;;;;5033562;28;20030;-80
2022/01/04 03:06:46;;;;;;;;;;;9.90;99.90;;;;;;5033695;28;20028;-79
2022/01/04 03:09:12;;;;;;;12.93;6.22;;;9.90;99.90;;;;;;5015595;28;20008;-80
2022/01/04 03:11:38;;;;;;;9.57;5.38;;;9.90;99.90;;;;;;5033540;28;20458;-80
2022/01/04 03:14:04;;;;;;;11.68;5.55;;;9.90;99.90;;;;;;5032836;28;20120;-80
2022/01/04 03:16:31;;;;;;;11.07;4.78;;;9.90;99.90;;;;;;5032733;28;20465;-80
2022/01/04 03:21:23;;;;;;;11.07;5.53;;;9.90;99.90;;;;;;5033394;28;20486;-79
2022/01/04 03:23:49;;;;;;;12.57;5.13;;;9.90;99.90;;;;;;5033194;28;20091;-80
2022/01/04 03:26:15;;;;;;;9.57;4.80;;;9.90;99.90;;;;;;5032821;28;20029;-80
2022/01/04 03:28:42;;;;;;;7.93;4.85;;;9.90;99.90;;;;;;5032570;28;20025;-80
2022/01/04 03:31:08;;;;;;;10.35;4.45;;;9.90;99.90;;;;;;5032810;28;20028;-79
2022/01/04 03:33:53;;;;;;;8.35;4.10;;;9.90;99.90;;;;;;5033185;28;20044;-80
2022/01/04 03:36:21;;;;;;;11.35;4.55;;;9.80;99.90;;;;;;5032613;28;20022;-80
2022/01/04 03:38:48;;;;;;;10.57;4.78;;;9.90;99.90;;;;;;5032496;28;20466;-79
2022/01/04 03:41:19;;;;;;;8.45;4.90;;;9.80;99.90;;;;;;5015275;28;20083;-80
2022/01/04 03:43:45;;;;;;;14.80;5.53;;;9.80;99.90;;;;;;5033315;28;20032;-79
2022/01/04 03:46:11;;;;;;;10.57;5.20;;;9.90;99.90;;;;;;5033191;28;20104;-79
2022/01/04 03:48:38;;;;;;;11.67;5.30;;;9.90;99.90;;;;;;5014712;28;20260;-79
2022/01/04 03:51:05;;;;;;;9.98;4.10;;;9.90;99.90;;;;;;5014728;28;20030;-79
2022/01/04 03:53:31;;;;;;;15.02;4.97;;;9.90;99.90;;;;;;5032436;28;20056;-79
2022/01/04 03:56:54;;;;;;;10.95;4.32;;;9.90;99.90;;;;;;5014935;28;20108;-77
2022/01/04 03:59:24;;;;;;;9.02;3.28;;;10.00;99.90;;;;;;5032080;28;20039;-79
2022/01/04 04:01:50;;;;;;;11.07;3.50;;;10.00;99.90;;;;;;5032617;28;20025;-79
2022/01/04 04:05:13;;;;;;;9.77;3.50;;;10.10;99.90;;;;;;5032692;28;20021;-77
2022/01/04 04:08:41;;;;;;;12.27;3.88;;;10.10;99.90;;;;;;5032207;28;20116;-78
2022/01/04 04:11:07;;;;;;;6.50;3.30;;;10.10;99.90;;;;;;5032388;28;20026;-79
2022/01/04 04:13:33;;;;;;;10.77;3.27;;;10.10;99.90;;;;;;5033465;28;20036;-79
2022/01/04 04:15:59;;;;;;;8.32;3.83;;;10.20;99.90;;;;;;5015411;28;20275;-79
2022/01/04 04:18:25;;;;;;;11.18;4.30;;;10.20;99.90;;;;;;5033161;28;20383;-79
2022/01/04 04:20:51;;;;;;;9.43;3.83;;;10.20;99.90;;;;;;5032912;28;20030;-79
2022/01/04 04:23:17;;;;;;;8.20;3.38;;;10.20;99.90;;;;;;5032971;28;20026;-79
2022/01/04 04:25:43;;;;;;;10.07;3.97;;;10.30;99.90;;;;;;5033134;28;20033;-79
2022/01/04 04:28:09;;;;;;;9.93;3.88;;;10.30;99.90;;;;;;5015523;28;20029;-79
2022/01/04 04:30:37;;;;;;;12.50;3.70;;;10.20;99.90;;;;;;5033167;28;20029;-79
2022/01/04 04:33:03;;;;;;;10.70;4.30;;;10.30;99.90;;;;;;5015185;28;20041;-79
2022/01/04 04:35:30;;;;;;;10.00;3.97;;;10.30;99.90;;;;;;5033060;28;20071;-80
2022/01/04 04:37:59;;;;;;;9.75;4.05;;;10.40;99.90;;;;;;5032917;28;20036;-79
2022/01/04 04:40:25;;;;;;;11.75;4.25;;;10.40;99.90;;;;;;5033083;28;20053;-79
2022/01/04 04:42:51;;;;;;;9.03;3.57;;;10.40;99.90;;;;;;5037668;28;20030;-79
2022/01/04 04:45:17;;;;;;;11.43;3.83;;;10.40;99.90;;;;;;5037067;28;20036;-79
2022/01/04 04:47:43;;;;;;;9.45;3.70;;;10.50;99.90;;;;;;5037190;28;20112;-79
2022/01/04 04:50:09;;;;;;;11.70;3.87;;;10.50;99.90;;;;;;5037227;28;20101;-80
2022/01/04 04:52:36;;;;;;;9.17;3.60;;;10.50;99.90;;;;;;5018964;28;20352;-79
2022/01/04 04:55:03;;;;;;;9.30;3.50;;;10.60;99.90;;;;;;5036673;28;20053;-79
2022/01/04 04:57:29;;;;;;;13.15;4.22;;;10.60;99.90;;;;;;5018740;28;20025;-79
2022/01/04 04:59:55;;;;;;;9.55;3.35;;;10.50;99.90;;;;;;5036690;28;20069;-79
2022/01/04 05:02:22;;;;;;;7.77;3.37;;;10.50;99.90;;;;;;5037199;28;20382;-80
2022/01/04 05:04:48;;;;;;;11.33;3.77;;;10.40;99.90;;;;;;5036651;28;20030;-79
2022/01/04 05:07:14;;;;;;;8.20;3.43;;;10.50;99.90;;;;;;5036447;28;20059;-80
2022/01/04 05:09:40;;;;;;;6.90;3.17;;;10.50;99.90;;;;;;5036648;28;20169;-79
2022/01/04 05:12:07;;;;;;;11.30;3.55;;;10.50;99.90;;;;;;5036328;28;20547;-80
2022/01/04 05:14:33;;;;;;;7.30;3.53;;;10.50;99.90;;;;;;5018605;28;20025;-79
2022/01/04 05:17:00;;;;;;;11.63;3.95;;;10.50;99.90;;;;;;5036488;28;20504;-80
2022/01/04 05:19:26;;;;;;;9.40;3.87;;;10.50;99.90;;;;;;5036461;28;20041;-79
2022/01/04 05:21:52;;;;;;;8.70;3.65;;;10.50;99.90;;;;;;5036584;28;20260;-80
2022/01/04 05:24:18;;;;;;;15.43;3.45;;;10.60;99.90;;;;;;5018841;28;20028;-78
2022/01/04 05:26:44;;;;;;;13.43;3.88;;;10.60;99.90;;;;;;5037164;28;20116;-79
2022/01/04 05:29:10;;;;;;;13.23;3.63;;;10.60;99.90;;;;;;5036982;28;20104;-79
2022/01/04 05:31:48;;;;;;;13.50;3.70;;;10.60;99.90;;;;;;5036685;28;20030;-79
2022/01/04 05:34:14;;;;;;;9.57;3.55;;;10.70;99.90;;;;;;5018398;28;20018;-79
2022/01/04 05:36:40;;;;;;;10.80;4.60;;;10.70;99.90;;;;;;5036271;28;20065;-79
2022/01/04 05:39:07;;;;;;;7.27;3.37;;;10.60;99.90;;;;;;5018268;28;20049;-79
2022/01/04 05:41:33;;;;;;;8.98;3.78;;;10.60;99.90;;;;;;5036578;28;20030;-79
2022/01/04 05:44:00;;;;;;;11.50;3.30;;;10.60;99.90;;;;;;5036790;28;20017;-80
2022/01/04 05:46:26;;;;;;;9.55;3.70;;;10.60;99.90;;;;;;5036182;28;20029;-79
2022/01/04 05:48:52;;;;;;;10.17;3.33;;;10.60;99.90;;;;;;5018172;28;20025;-79
2022/01/04 05:51:18;;;;;;;10.73;3.10;;;10.60;99.90;;;;;;5017927;28;20030;-79
2022/01/04 05:53:44;;;;;;;9.05;3.05;;;10.60;99.90;;;;;;5036018;28;20021;-79
2022/01/04 05:56:10;;;;;;;10.02;3.53;;;10.60;99.90;;;;;;5017868;28;20048;-79
2022/01/04 05:58:36;;;;;;;11.32;3.72;;;10.70;99.90;;;;;;5035708;28;20048;-79
2022/01/04 06:01:03;;;;;;;8.57;3.70;;;10.60;99.90;;;;;;5017414;28;20079;-79
2022/01/04 06:03:29;;;;;;;10.65;3.90;;;10.60;99.90;;;;;;5036154;28;20545;-79
2022/01/04 06:05:56;;;;;;;14.13;3.75;;;10.60;99.90;;;;;;5036007;28;20026;-78
2022/01/04 06:08:22;;;;;;;10.57;3.58;;;10.60;99.90;;;;;;5035537;28;20018;-78
2022/01/04 06:10:51;;;;;;;12.18;3.78;;;10.60;99.90;;;;;;5035531;28;20025;-79
2022/01/04 06:16:03;;;;;;;8.98;3.40;;;10.70;99.90;;;;;;5035429;28;20036;-78
2022/01/04 06:31:40;;;;;;;10.63;4.18;;;10.70;99.90;;;;;;5090430;27;20381;-72
2022/01/04 06:34:06;;;;;;;8.40;3.97;;;10.90;99.90;;;;;;5089725;28;20111;-73
2022/01/04 06:36:32;;;;;;;11.13;3.90;;;10.90;99.90;;;;;;5090302;28;20517;-75
2022/01/04 06:38:59;;;;;;;8.63;3.72;;;10.90;99.90;;;;;;5089564;28;20026;-75
2022/01/04 06:41:25;;;;;;;10.10;4.40;;;11.00;99.90;;;;;;5090194;28;20035;-74
2022/01/04 06:43:51;;;;;;;10.17;4.00;;;11.00;99.90;;;;;;5087275;28;20020;-73
2022/01/04 06:47:15;;;;;;;7.10;3.47;;;11.10;99.90;;;;;;5087671;28;20064;-69
2022/01/04 06:49:41;;;;;;;11.60;3.67;;;11.20;99.90;;;;;;5082667;28;20008;-74
2022/01/04 06:52:08;;;;;;;13.43;3.53;;;11.30;99.90;;;;;;5078176;28;20373;-68
2022/01/04 06:54:35;;;;;;;8.45;3.75;;;11.30;99.90;;;;;;5067363;28;20111;-72
2022/01/04 06:57:01;;;;;;;8.95;4.22;;;11.30;99.90;;;;;;5067095;28;20029;-73
2022/01/04 06:59:27;;;;;;;8.65;3.55;;;11.40;99.90;;;;;;5068419;28;20162;-74
2022/01/04 07:01:53;;;;;;;10.77;4.13;;;11.30;99.90;;;;;;5068331;28;20037;-73
2022/01/04 07:04:20;;;;;;;10.23;3.72;;;11.30;99.90;;;;;;5068813;28;20267;-75
2022/01/04 07:06:46;;;;;;;11.05;3.53;;;11.40;99.90;;;;;;5068760;28;20077;-75
2022/01/04 07:09:12;;;;;;;12.87;3.63;;;11.40;99.90;;;;;;5068568;28;20538;-75
2022/01/04 07:12:53;;;;;;;8.73;3.60;;;11.40;99.90;;;;;;5068646;28;20028;-69
2022/01/04 07:15:20;;;;;;;11.10;3.63;;;11.80;99.90;;;;;;5065789;28;20503;-74
2022/01/04 07:17:46;;;;;;;9.02;2.92;;;12.60;99.90;;;;;;5066712;28;20044;-74
2022/01/04 07:20:12;;;;;;;9.73;3.60;;;13.00;99.90;;;;;;5067305;28;20049;-76
2022/01/04 07:22:39;;;;;;;11.25;3.10;;;13.40;99.90;;;;;;5066610;28;20024;-74
2022/01/04 07:25:06;;;;;;;9.25;2.63;;;14.10;99.90;;;;;;5066422;28;20029;-75
2022/01/04 07:27:32;;;;;;;7.72;2.50;;;14.70;99.90;;;;;;5073271;28;20118;-75
2022/01/04 07:29:58;;;;;;;6.80;2.40;;;15.10;99.90;;;;;;5069890;28;20060;-76
2022/01/04 07:32:25;;;;;;;8.00;2.58;;;15.50;99.90;;;;;;5036954;28;20025;-75
2022/01/04 07:34:51;;;;;;;12.82;2.72;;;15.90;99.90;;;;;;5053265;28;20342;-74
2022/01/04 07:37:17;;;;;;;6.80;2.30;;;16.20;99.90;;;;;;5052944;28;20432;-73
2022/01/04 07:39:43;;;;;;;6.10;2.10;;;16.50;99.90;;;;;;5052886;28;20105;-73
2022/01/04 07:42:10;;;;;;;7.17;2.00;;;16.90;99.90;;;;;;5053016;28;20290;-73
2022/01/04 07:44:36;;;;;;;15.73;2.50;;;17.90;99.90;;;;;;5052761;28;20417;-73
2022/01/04 07:47:02;;;;;;;6.93;2.25;;;18.50;99.90;;;;;;5052790;28;20036;-73
2022/01/04 07:49:28;;;;;;;11.15;2.33;;;19.00;99.90;;;;;;5053545;28;20025;-73
2022/01/04 07:51:54;;;;;;;10.25;2.10;;;19.60;99.90;;;;;;5052951;28;20029;-77
2022/01/04 07:54:20;;;;;;;9.93;2.20;;;19.60;99.90;;;;;;5036249;28;20021;-73
2022/01/04 07:56:46;;;;;;;142.75;16.20;;;19.60;99.90;;;;;;5053542;28;20032;-71
2022/01/04 07:59:12;;;;;;;31.45;3.63;;;19.20;99.90;;;;;;5052818;28;20033;-73
2022/01/04 08:01:38;;;;;;;7.53;2.38;;;18.30;99.90;;;;;;5052761;28;20033;-74
2022/01/04 08:04:04;;;;;;;12.43;2.30;;;18.00;99.90;;;;;;5036146;28;20463;-72
2022/01/04 08:06:31;;;;;;;6.75;2.47;;;17.90;99.90;;;;;;5035985;28;20033;-69
2022/01/04 08:08:58;;;;;;;25.08;4.00;;;17.70;99.90;;;;;;5052622;28;20029;-74
2022/01/04 08:11:26;;;;;;;22.92;3.65;;;17.60;99.90;;;;;;5035969;28;20504;-72
2022/01/04 08:13:53;;;;;;;12.27;2.90;;;17.40;99.90;;;;;;5035577;28;20028;-75
2022/01/04 08:16:19;;;;;;;10.82;2.53;;;17.40;99.90;;;;;;5052548;28;20036;-74
2022/01/04 08:18:45;;;;;;;23.15;3.17;;;17.70;99.90;;;;;;5035784;28;20047;-75
2022/01/04 08:21:11;;;;;;;244.98;23.70;;;17.80;99.90;;;;;;5052360;28;20048;-75
2022/01/04 08:23:37;;;;;;;15.43;3.28;;;17.40;99.90;;;;;;5052954;28;20032;-74
2022/01/04 08:26:04;;;;;;;10.70;2.47;;;16.90;99.90;;;;;;5035169;28;20032;-75
2022/01/04 08:28:30;;;;;;;39.90;5.22;;;16.40;99.90;;;;;;5052442;28;20025;-73
2022/01/04 08:30:57;;;;;;;61.50;7.60;;;16.40;99.90;;;;;;5035239;28;20060;-74
2022/01/04 08:33:23;;;;;;;8.55;2.88;;;16.70;99.90;;;;;;5052260;28;20040;-73
2022/01/04 08:35:49;;;;;;;25.60;3.67;;;17.00;99.90;;;;;;5051892;28;20044;-69
2022/01/04 08:38:15;;;;;;;28.30;4.65;;;17.20;99.90;;;;;;5052187;28;20291;-74
2022/01/04 08:40:41;;;;;;;98.43;12.82;;;17.20;99.90;;;;;;5051320;28;20041;-75
2022/01/04 08:43:07;;;;;;;55.53;9.02;;;17.20;99.90;;;;;;5034011;28;20025;-73
2022/01/04 08:45:35;;;;;;;210.57;28.10;;;17.30;99.90;;;;;;5051736;28;20025;-75
2022/01/04 08:48:04;;;;;;;182.57;21.30;;;17.30;99.90;;;;;;5052174;28;20397;-74
2022/01/04 08:50:30;;;;;;;108.22;14.02;;;17.40;99.90;;;;;;5051612;28;20079;-73
2022/01/04 08:52:57;;;;;;;23.23;3.28;;;17.30;99.90;;;;;;5050341;28;20401;-74
2022/01/04 08:55:24;;;;;;;16.70;3.15;;;17.20;99.90;;;;;;5050814;28;20033;-74
2022/01/04 08:57:50;;;;;;;58.67;7.88;;;17.20;99.90;;;;;;5050619;28;20117;-73
2022/01/04 09:00:17;;;;;;;72.25;9.95;;;17.40;99.90;;;;;;5050277;28;20045;-74
2022/01/04 09:02:44;;;;;;;115.93;13.43;;;17.40;99.90;;;;;;5050218;28;20177;-74
2022/01/04 09:05:10;;;;;;;32.70;5.15;;;17.60;99.90;;;;;;5050667;28;20025;-74
2022/01/04 09:07:37;;;;;;;211.23;22.35;;;17.70;99.90;;;;;;5050849;28;20540;-73
2022/01/04 09:10:05;;;;;;;266.92;31.13;;;17.80;99.90;;;;;;5050498;28;20496;-75
2022/01/04 09:12:43;;;;;;;256.02;29.48;;;18.00;99.90;;;;;;5050031;28;20033;-74
2022/01/04 09:20:40;;;;;;;15.10;2.70;;;17.20;99.90;;;;;;5051049;28;20048;-75
2022/01/04 09:23:06;;;;;;;8.32;2.40;;;17.00;99.90;;;;;;5051562;28;20072;-72
2022/01/04 09:25:34;;;;;;;8.65;2.13;;;16.60;99.90;;;;;;5051331;28;20060;-74
2022/01/04 09:28:00;;;;;;;9.70;2.20;;;16.30;99.90;;;;;;5051291;28;20309;-73
2022/01/04 09:30:27;;;;;;;7.40;1.93;;;16.40;99.90;;;;;;5048719;28;20111;-74
2022/01/04 09:32:53;;;;;;;20.30;3.20;;;16.40;99.90;;;;;;5050698;28;20305;-74
2022/01/04 09:35:19;;;;;;;38.08;3.50;;;16.70;99.90;;;;;;5051117;28;20108;-74
2022/01/04 09:37:45;;;;;;;7.60;2.10;;;17.00;99.90;;;;;;5051197;28;20037;-73
2022/01/04 09:40:11;;;;;;;11.93;2.38;;;17.10;99.90;;;;;;5051136;28;20124;-74
2022/01/04 09:42:38;;;;;;;7.28;2.55;;;17.10;99.90;;;;;;5051342;28;20556;-73
2022/01/04 09:45:06;;;;;;;7.60;2.25;;;17.10;99.90;;;;;;5061446;28;20120;-74
2022/01/04 09:47:33;;;;;;;34.33;4.10;;;17.30;99.90;;;;;;5050495;28;20021;-74
2022/01/04 09:49:59;;;;;;;;;;;17.50;99.90;;;;;;5050967;28;20036;-73
2022/01/04 09:52:25;;;;;;;9.77;2.03;;;16.90;99.90;;;;;;5033794;28;19955;-74
2022/01/04 09:54:53;;;;;;;12.40;2.20;;;16.40;99.90;;;;;;5062055;28;20047;-76
2022/01/04 09:57:20;;;;;;;13.02;2.40;;;16.40;99.90;;;;;;5072631;28;20028;-72
2022/01/04 09:59:49;;;;;;;7.18;1.90;;;16.40;99.90;;;;;;5072697;28;20036;-72
2022/01/04 10:02:21;;;;;;;19.42;4.20;;;16.50;99.90;;;;;;5072661;28;20032;-73
2022/01/04 10:04:49;;;;;;;15.38;2.88;;;16.90;99.90;;;;;;5071512;28;20133;-74
2022/01/04 10:07:21;;;;;;;30.90;4.00;;;16.90;99.90;;;;;;5072701;28;20032;-74
2022/01/04 10:09:52;;;;;;;24.27;3.70;;;16.50;99.90;;;;;;5072540;28;20496;-74
2022/01/04 10:12:21;;;;;;;69.60;8.27;;;16.10;99.90;;;;;;5073057;28;20055;-72
2022/01/04 10:14:50;;;;;;;15.60;2.83;;;16.20;99.90;;;;;;5071251;28;20032;-74
2022/01/04 10:17:22;;;;;;;14.68;2.20;;;16.10;99.90;;;;;;5071522;28;20082;-73
2022/01/04 10:19:56;;;;;;;40.78;5.38;;;16.30;99.90;;;;;;5072692;28;20502;-73
2022/01/04 10:22:27;;;;;;;12.30;2.58;;;17.00;99.90;;;;;;5072310;28;20032;-73
2022/01/04 10:25:04;;;;;;;25.23;3.85;;;17.40;99.90;;;;;;5072656;28;20052;-75
2022/01/04 10:27:40;;;;;;;10.48;2.00;;;17.80;99.90;;;;;;5071154;28;20036;-74
2022/01/04 10:30:23;;;;;;;17.20;3.03;;;18.00;99.90;;;;;;5078330;28;20060;-75
2022/01/04 10:33:07;;;;;;;7.55;1.90;;;18.30;99.90;;;;;;5093153;28;20479;-74
2022/01/04 10:35:40;;;;;;;7.97;1.85;;;18.40;99.90;;;;;;5093067;28;20103;-74
2022/01/04 10:38:14;;;;;;;27.67;4.13;;;18.30;99.90;;;;;;5091273;28;20028;-74
2022/01/04 10:40:46;;;;;;;24.27;3.72;;;18.20;99.90;;;;;;5092494;28;20032;-74
2022/01/04 10:43:18;;;;;;;44.65;6.35;;;17.90;99.90;;;;;;5092182;28;20066;-74
2022/01/04 10:45:45;;;;;;;56.65;8.25;;;17.90;99.90;;;;;;5092133;28;20471;-72
2022/01/04 10:48:21;;;;;;;30.00;4.30;;;17.70;99.90;;;;;;5091044;28;20518;-74
2022/01/04 10:50:59;;;;;;;46.20;7.97;;;17.60;99.90;;;;;;5090382;28;20032;-74
2022/01/04 10:53:26;;;;;;;20.77;3.88;;;17.20;99.90;;;;;;5092027;28;20032;-74
2022/01/04 10:56:05;;;;;;;29.67;4.05;;;17.00;99.90;;;;;;5091692;28;20020;-73
2022/01/04 10:58:37;;;;;;;44.88;7.13;;;16.80;99.90;;;;;;5092182;28;20099;-73
2022/01/04 11:01:13;;;;;;;10.82;3.05;;;16.80;99.90;;;;;;5091982;28;20102;-70
2022/01/04 11:03:52;;;;;;;16.25;3.13;;;16.50;99.90;;;;;;5092012;28;20020;-75
2022/01/04 11:06:28;;;;;;;14.65;3.50;;;16.30;99.90;;;;;;5092969;28;20484;-72
2022/01/04 11:08:55;;;;;;;10.88;2.20;;;16.30;99.90;;;;;;5095439;28;20039;-72
2022/01/04 11:11:21;;;;;;;9.00;3.10;;;16.50;99.90;;;;;;5095528;28;20032;-72
2022/01/04 11:13:51;;;;;;;11.65;2.30;;;16.80;99.90;;;;;;5095513;28;20487;-72
2022/01/04 11:16:19;;;;;;;7.28;2.03;;;17.10;99.90;;;;;;5095533;28;20337;-71
2022/01/04 11:18:50;;;;;;;18.58;3.88;;;17.20;99.90;;;;;;5094537;28;20031;-73
2022/01/04 11:21:24;;;;;;;9.25;2.47;;;17.20;99.90;;;;;;5095946;28;20048;-73
2022/01/04 11:23:52;;;;;;;11.80;2.15;;;17.30;99.90;;;;;;5096511;28;20062;-72
2022/01/04 11:26:19;;;;;;;16.52;4.15;;;17.50;99.90;;;;;;5095966;28;20103;-73
2022/01/04 11:29:25;;;;;;;13.93;3.55;;;17.60;99.90;;;;;;5094548;28;20099;-72
2022/01/04 11:32:15;;;;;;;8.02;1.95;;;17.40;99.90;;;;;;5092976;28;20150;-68
2022/01/04 11:35:44;;;;;;;9.02;2.10;;;17.70;99.90;;;;;;5095677;28;20425;-69
2022/01/04 11:38:10;;;;;;;8.00;2.45;;;17.60;99.90;;;;;;5095020;28;20043;-73
2022/01/04 11:40:41;;;;;;;5.88;2.45;;;17.80;99.90;;;;;;5095552;28;20032;-74
2022/01/04 11:43:26;;;;;;;9.27;2.90;;;17.90;99.90;;;;;;5095993;28;20024;-73
2022/01/04 11:45:52;;;;;;;15.77;2.58;;;17.80;99.90;;;;;;5095487;28;20020;-73
2022/01/04 11:48:35;;;;;;;6.78;2.35;;;18.00;99.90;;;;;;5093995;28;20077;-73
2022/01/04 11:51:06;;;;;;;9.13;2.40;;;18.20;99.90;;;;;;5094155;28;20110;-73
2022/01/04 11:53:33;;;;;;;12.27;2.80;;;17.80;99.90;;;;;;5095556;28;20024;-73
2022/01/04 11:56:04;;;;;;;8.15;2.28;;;17.80;99.90;;;;;;5096007;28;20107;-74
2022/01/04 11:59:17;;;;;;;7.60;2.40;;;17.60;99.90;;;;;;5095872;28;20028;-73
2022/01/04 12:01:43;;;;;;;8.48;2.40;;;17.70;99.90;;;;;;5036253;28;20542;-73
2022/01/04 12:05:05;;;;;;;6.68;2.60;;;17.60;99.90;;;;;;5052957;28;20028;-69
2022/01/04 12:07:46;;;;;;;11.10;2.38;;;17.40;99.90;;;;;;5051381;28;20062;-72
2022/01/04 12:10:20;;;;;;;10.00;2.80;;;17.60;99.90;;;;;;5051547;28;20025;-72
2022/01/04 12:12:58;;;;;;;11.07;3.00;;;17.70;99.90;;;;;;5039600;28;20499;-73
2022/01/04 12:15:33;;;;;;;6.40;2.45;;;17.80;99.90;;;;;;5052056;28;20091;-73
2022/01/04 12:18:29;;;;;;;10.98;2.83;;;18.00;99.90;;;;;;5052496;28;20040;-73
2022/01/04 12:20:58;;;;;;;7.53;2.50;;;18.00;99.90;;;;;;5032109;28;20038;-72
2022/01/04 12:23:30;;;;;;;6.05;2.90;;;18.10;99.90;;;;;;5032336;28;20470;-73
2022/01/04 12:26:05;;;;;;;7.65;3.08;;;18.20;99.90;;;;;;5015938;28;20079;-71
2022/01/04 12:28:40;;;;;;;8.07;2.80;;;18.20;99.90;;;;;;5021408;28;20393;-73
2022/01/04 12:31:34;;;;;;;8.38;2.75;;;17.90;99.90;;;;;;5052495;28;20178;-73
2022/01/04 12:34:24;;;;;;;10.30;2.83;;;17.90;99.90;;;;;;5052727;28;20029;-73
2022/01/04 12:36:51;;;;;;;7.35;3.00;;;17.80;99.90;;;;;;5049641;28;20032;-73
2022/01/04 12:39:19;;;;;;;6.65;2.72;;;17.70;99.90;;;;;;5074733;28;20034;-72
2022/01/04 12:41:48;;;;;;;10.60;3.15;;;17.80;99.90;;;;;;5074723;28;20395;-72
2022/01/04 12:44:22;;;;;;;8.57;3.08;;;17.70;99.90;;;;;;5072831;28;20017;-73
2022/01/04 12:46:49;;;;;;;6.70;2.72;;;17.50;99.90;;;;;;5087565;28;20410;-69
2022/01/04 12:49:20;;;;;;;7.97;2.90;;;17.20;99.90;;;;;;5093467;28;20038;-71
2022/01/04 12:52:42;;;;;;;9.20;2.97;;;16.90;99.90;;;;;;5090807;28;20537;-69
2022/01/04 12:55:11;;;;;;;7.78;2.80;;;17.10;99.90;;;;;;5092524;28;20031;-72
2022/01/04 12:57:38;;;;;;;8.23;2.67;;;17.30;99.90;;;;;;5094441;28;20020;-73
2022/01/04 13:00:05;;;;;;;9.45;3.10;;;17.20;99.90;;;;;;5093086;28;20123;-74
2022/01/04 13:02:33;;;;;;;11.13;2.67;;;17.20;99.90;;;;;;5094968;28;20016;-75
2022/01/04 13:05:03;;;;;;;9.88;3.05;;;17.10;99.90;;;;;;5094145;28;20028;-73
2022/01/04 13:07:38;;;;;;;11.73;4.00;;;17.10;99.90;;;;;;5092910;28;20448;-73
2022/01/04 13:10:10;;;;;;;13.50;4.20;;;17.10;99.90;;;;;;5094379;28;20042;-73
2022/01/04 13:12:42;;;;;;;11.98;3.25;;;16.80;99.90;;;;;;5094056;28;20024;-72
2022/01/04 13:15:11;;;;;;;8.85;3.47;;;16.80;99.90;;;;;;5094012;28;20028;-72
2022/01/04 13:17:44;;;;;;;10.23;3.80;;;17.00;99.90;;;;;;5094548;28;20020;-72
2022/01/04 13:20:11;;;;;;;6.75;3.53;;;17.10;99.90;;;;;;5094744;28;20031;-72